createdAt,value
2017-11-22T00:00:14.069Z,1001.99
2017-11-22T00:00:40.192Z,1001.9
2017-11-22T00:01:06.319Z,1001.95
2017-11-22T00:01:32.443Z,1001.85
2017-11-22T00:01:58.568Z,1001.97
2017-11-22T00:02:24.739Z,1001.83
2017-11-22T00:02:50.861Z,1001.91
2017-11-22T00:03:17.007Z,1001.85
2017-11-22T00:03:43.134Z,1001.96
2017-11-22T00:04:09.285Z,1001.76
2017-11-22T00:04:35.421Z,1001.88
2017-11-22T00:05:01.542Z,1001.91
2017-11-22T00:05:27.672Z,1001.92
2017-11-22T00:05:53.796Z,1001.88
2017-11-22T00:06:19.918Z,1001.94
2017-11-22T00:06:46.049Z,1001.9
2017-11-22T00:07:12.169Z,1001.96
2017-11-22T00:07:38.292Z,1001.92
2017-11-22T00:08:04.418Z,1001.91
2017-11-22T00:08:30.544Z,1001.95
2017-11-22T00:08:56.675Z,1001.88
2017-11-22T00:09:22.798Z,1001.96
2017-11-22T00:09:48.917Z,1001.89
2017-11-22T00:10:15.036Z,1001.91
2017-11-22T00:10:41.158Z,1001.9
2017-11-22T00:11:07.282Z,1001.86
2017-11-22T00:11:33.437Z,1001.81
2017-11-22T00:11:59.558Z,1001.78
2017-11-22T00:12:25.679Z,1001.82
2017-11-22T00:12:51.800Z,1001.75
2017-11-22T00:13:17.934Z,1001.79
2017-11-22T00:13:44.053Z,1001.67
2017-11-22T00:14:10.179Z,1001.75
2017-11-22T00:14:36.300Z,1001.71
2017-11-22T00:15:02.429Z,1001.77
2017-11-22T00:15:28.550Z,1001.69
2017-11-22T00:15:54.680Z,1001.69
2017-11-22T00:16:20.826Z,1001.7
2017-11-22T00:16:46.951Z,1001.68
2017-11-22T00:17:13.098Z,1001.72
2017-11-22T00:17:39.221Z,1001.69
2017-11-22T00:18:05.342Z,1001.83
2017-11-22T00:18:31.471Z,1001.78
2017-11-22T00:18:57.593Z,1001.75
2017-11-22T00:19:23.715Z,1001.83
2017-11-22T00:19:49.845Z,1001.79
2017-11-22T00:20:15.964Z,1001.79
2017-11-22T00:20:42.094Z,1001.71
2017-11-22T00:21:08.216Z,1001.78
2017-11-22T00:21:34.336Z,1001.68
2017-11-22T00:22:00.464Z,1001.71
2017-11-22T00:22:26.588Z,1001.69
2017-11-22T00:22:52.704Z,1001.8
2017-11-22T00:23:18.828Z,1001.72
2017-11-22T00:23:44.952Z,1001.77
2017-11-22T00:24:11.074Z,1001.72
2017-11-22T00:24:37.194Z,1001.69
2017-11-22T00:25:03.317Z,1001.87
2017-11-22T00:25:29.445Z,1001.85
2017-11-22T00:25:55.569Z,1001.79
2017-11-22T00:26:21.685Z,1001.87
2017-11-22T00:26:47.819Z,1001.72
2017-11-22T00:27:13.936Z,1001.65
2017-11-22T00:27:40.068Z,1001.71
2017-11-22T00:28:06.187Z,1001.73
2017-11-22T00:28:32.309Z,1001.73
2017-11-22T00:28:58.438Z,1001.66
2017-11-22T00:29:24.555Z,1001.61
2017-11-22T00:29:50.673Z,1001.6
2017-11-22T00:30:16.837Z,1001.73
2017-11-22T00:30:42.968Z,1001.69
2017-11-22T00:31:09.093Z,1001.77
2017-11-22T00:31:35.212Z,1001.59
2017-11-22T00:32:01.337Z,1001.65
2017-11-22T00:32:27.465Z,1001.69
2017-11-22T00:32:53.581Z,1001.63
2017-11-22T00:33:19.713Z,1001.93
2017-11-22T00:33:45.844Z,1001.82
2017-11-22T00:34:11.969Z,1001.64
2017-11-22T00:34:38.096Z,1001.68
2017-11-22T00:35:04.219Z,1001.6
2017-11-22T00:35:30.338Z,1001.71
2017-11-22T00:35:56.472Z,1001.75
2017-11-22T00:36:22.592Z,1001.58
2017-11-22T00:36:48.708Z,1001.59
2017-11-22T00:37:14.831Z,1001.58
2017-11-22T00:37:40.961Z,1001.49
2017-11-22T00:38:07.088Z,1001.6
2017-11-22T00:38:33.207Z,1001.59
2017-11-22T00:38:59.345Z,1001.55
2017-11-22T00:39:25.453Z,1001.66
2017-11-22T00:39:51.579Z,1001.59
2017-11-22T00:40:17.694Z,1001.57
2017-11-22T00:40:43.816Z,1001.64
2017-11-22T00:41:09.943Z,1001.64
2017-11-22T00:41:36.072Z,1001.65
2017-11-22T00:42:02.213Z,1001.65
2017-11-22T00:42:28.336Z,1001.81
2017-11-22T00:42:54.463Z,1001.74
2017-11-22T00:43:20.613Z,1001.59
2017-11-22T00:43:46.727Z,1001.65
2017-11-22T00:44:12.858Z,1001.63
2017-11-22T00:44:38.977Z,1001.65
2017-11-22T00:45:05.129Z,1001.58
2017-11-22T00:45:31.246Z,1001.68
2017-11-22T00:45:57.375Z,1001.73
2017-11-22T00:46:23.494Z,1001.84
2017-11-22T00:46:49.614Z,1001.81
2017-11-22T00:47:15.743Z,1001.71
2017-11-22T00:47:41.863Z,1001.74
2017-11-22T00:48:07.993Z,1001.61
2017-11-22T00:48:34.114Z,1001.58
2017-11-22T00:49:00.242Z,1001.7
2017-11-22T00:49:26.398Z,1001.71
2017-11-22T00:49:52.524Z,1001.8
2017-11-22T00:50:18.649Z,1001.64
2017-11-22T00:50:44.771Z,1001.68
2017-11-22T00:51:10.904Z,1001.7
2017-11-22T00:51:37.021Z,1001.67
2017-11-22T00:52:03.145Z,1001.65
2017-11-22T00:52:29.268Z,1001.54
2017-11-22T00:52:55.386Z,1001.45
2017-11-22T00:53:21.517Z,1001.59
2017-11-22T00:53:47.642Z,1001.61
2017-11-22T00:54:13.768Z,1001.64
2017-11-22T00:54:39.896Z,1001.56
2017-11-22T00:55:06.012Z,1001.57
2017-11-22T00:55:32.134Z,1001.57
2017-11-22T00:55:58.256Z,1001.66
2017-11-22T00:56:24.384Z,1001.73
2017-11-22T00:56:50.507Z,1001.62
2017-11-22T00:57:16.627Z,1001.69
2017-11-22T00:57:42.757Z,1001.59
2017-11-22T00:58:08.881Z,1001.74
2017-11-22T00:58:35.018Z,1001.54
2017-11-22T00:59:01.160Z,1001.6
2017-11-22T00:59:27.280Z,1001.62
2017-11-22T00:59:53.408Z,1001.69
2017-11-22T01:00:19.526Z,1001.57
2017-11-22T01:00:45.651Z,1001.6
2017-11-22T01:01:11.780Z,1001.54
2017-11-22T01:01:37.902Z,1001.64
2017-11-22T01:02:04.030Z,1001.58
2017-11-22T01:02:30.161Z,1001.73
2017-11-22T01:02:56.278Z,1001.58
2017-11-22T01:03:22.394Z,1001.55
2017-11-22T01:03:48.523Z,1001.67
2017-11-22T01:04:14.648Z,1001.49
2017-11-22T01:04:40.771Z,1001.53
2017-11-22T01:05:06.897Z,1001.54
2017-11-22T01:05:33.018Z,1001.39
2017-11-22T01:05:59.138Z,1001.65
2017-11-22T01:06:25.265Z,1001.68
2017-11-22T01:06:51.384Z,1001.52
2017-11-22T01:07:17.512Z,1001.47
2017-11-22T01:07:43.639Z,1001.57
2017-11-22T01:08:09.762Z,1001.58
2017-11-22T01:08:35.888Z,1001.46
2017-11-22T01:09:02.002Z,1001.43
2017-11-22T01:09:28.125Z,1001.45
2017-11-22T01:09:54.242Z,1001.56
2017-11-22T01:10:20.373Z,1001.7
2017-11-22T01:10:46.493Z,1001.71
2017-11-22T01:11:12.621Z,1001.48
2017-11-22T01:11:38.742Z,1001.57
2017-11-22T01:12:04.892Z,1001.5
2017-11-22T01:12:31.010Z,1001.53
2017-11-22T01:12:57.167Z,1001.55
2017-11-22T01:13:23.292Z,1001.6
2017-11-22T01:13:49.419Z,1001.5
2017-11-22T01:14:15.549Z,1001.46
2017-11-22T01:14:41.667Z,1001.58
2017-11-22T01:15:07.787Z,1001.46
2017-11-22T01:15:33.939Z,1001.47
2017-11-22T01:16:00.061Z,1001.43
2017-11-22T01:16:26.188Z,1001.49
2017-11-22T01:16:52.312Z,1001.49
2017-11-22T01:17:18.438Z,1001.44
2017-11-22T01:17:44.581Z,1001.48
2017-11-22T01:18:10.708Z,1001.58
2017-11-22T01:18:36.829Z,1001.45
2017-11-22T01:19:04.372Z,1001.5
2017-11-22T01:19:30.501Z,1001.56
2017-11-22T01:19:56.617Z,1001.47
2017-11-22T01:20:22.747Z,1001.48
2017-11-22T01:20:48.886Z,1001.53
2017-11-22T01:21:15.010Z,1001.55
2017-11-22T01:21:41.142Z,1001.48
2017-11-22T01:22:07.283Z,1001.45
2017-11-22T01:22:33.412Z,1001.48
2017-11-22T01:22:59.538Z,1001.43
2017-11-22T01:23:25.662Z,1001.43
2017-11-22T01:23:51.784Z,1001.55
2017-11-22T01:24:17.917Z,1001.31
2017-11-22T01:24:44.035Z,1001.48
2017-11-22T01:25:10.161Z,1001.42
2017-11-22T01:25:36.275Z,1001.51
2017-11-22T01:26:02.403Z,1001.37
2017-11-22T01:26:28.520Z,1001.48
2017-11-22T01:26:54.650Z,1001.45
2017-11-22T01:27:20.776Z,1001.33
2017-11-22T01:27:46.900Z,1001.38
2017-11-22T01:28:13.018Z,1001.33
2017-11-22T01:28:39.146Z,1001.3
2017-11-22T01:29:05.298Z,1001.42
2017-11-22T01:29:31.420Z,1001.4
2017-11-22T01:29:57.551Z,1001.46
2017-11-22T01:30:23.676Z,1001.36
2017-11-22T01:30:49.800Z,1001.38
2017-11-22T01:31:15.926Z,1001.43
2017-11-22T01:31:42.051Z,1001.31
2017-11-22T01:32:08.180Z,1001.36
2017-11-22T01:32:34.297Z,1001.34
2017-11-22T01:33:00.422Z,1001.44
2017-11-22T01:33:26.540Z,1001.37
2017-11-22T01:33:52.667Z,1001.24
2017-11-22T01:34:18.800Z,1001.41
2017-11-22T01:34:44.932Z,1001.3
2017-11-22T01:35:11.055Z,1001.3
2017-11-22T01:35:37.182Z,1001.38
2017-11-22T01:36:03.304Z,1001.39
2017-11-22T01:36:29.436Z,1001.34
2017-11-22T01:36:55.575Z,1001.32
2017-11-22T01:37:21.709Z,1001.34
2017-11-22T01:37:47.833Z,1001.39
2017-11-22T01:38:13.950Z,1001.41
2017-11-22T01:38:40.076Z,1001.4
2017-11-22T01:39:06.219Z,1001.42
2017-11-22T01:39:32.349Z,1001.4
2017-11-22T01:39:58.473Z,1001.37
2017-11-22T01:40:24.600Z,1001.28
2017-11-22T01:40:50.738Z,1001.16
2017-11-22T01:41:16.853Z,1001.31
2017-11-22T01:41:42.991Z,1001.26
2017-11-22T01:42:09.120Z,1001.31
2017-11-22T01:42:35.246Z,1001.29
2017-11-22T01:43:01.370Z,1001.35
2017-11-22T01:43:27.490Z,1001.26
2017-11-22T01:43:53.612Z,1001.28
2017-11-22T01:44:19.730Z,1001.37
2017-11-22T01:44:45.859Z,1001.21
2017-11-22T01:45:11.980Z,1001.33
2017-11-22T01:45:38.131Z,1001.38
2017-11-22T01:46:04.252Z,1001.33
2017-11-22T01:46:30.372Z,1001.42
2017-11-22T01:46:56.520Z,1001.33
2017-11-22T01:47:22.640Z,1001.3
2017-11-22T01:47:48.766Z,1001.26
2017-11-22T01:48:14.888Z,1001.34
2017-11-22T01:48:41.010Z,1001.29
2017-11-22T01:49:07.141Z,1001.28
2017-11-22T01:49:33.263Z,1001.22
2017-11-22T01:49:59.392Z,1001.21
2017-11-22T01:50:25.533Z,1001.26
2017-11-22T01:50:51.662Z,1001.22
2017-11-22T01:51:17.787Z,1001.28
2017-11-22T01:51:43.912Z,1001.28
2017-11-22T01:52:10.035Z,1001.21
2017-11-22T01:52:36.161Z,1001.22
2017-11-22T01:53:02.298Z,1001.26
2017-11-22T01:53:28.421Z,1001.29
2017-11-22T01:53:54.545Z,1001.24
2017-11-22T01:54:20.692Z,1001.27
2017-11-22T01:54:46.841Z,1001.22
2017-11-22T01:55:12.960Z,1001.25
2017-11-22T01:55:39.086Z,1001.22
2017-11-22T01:56:05.206Z,1001.23
2017-11-22T01:56:31.336Z,1001.26
2017-11-22T01:56:57.463Z,1001.24
2017-11-22T01:57:23.610Z,1001.27
2017-11-22T01:57:49.737Z,1001.26
2017-11-22T01:58:15.851Z,1001.23
2017-11-22T01:58:41.978Z,1001.35
2017-11-22T01:59:08.108Z,1001.31
2017-11-22T01:59:34.234Z,1001.26
2017-11-22T02:00:00.355Z,1001.27
2017-11-22T02:00:26.472Z,1001.24
2017-11-22T02:00:52.600Z,1001.22
2017-11-22T02:01:18.726Z,1001.25
2017-11-22T02:01:44.847Z,1001.17
2017-11-22T02:02:10.981Z,1001.26
2017-11-22T02:02:37.107Z,1001.21
2017-11-22T02:03:03.237Z,1001.27
2017-11-22T02:03:29.381Z,1001.15
2017-11-22T02:03:55.501Z,1001.22
2017-11-22T02:04:21.622Z,1001.11
2017-11-22T02:04:47.749Z,1001.18
2017-11-22T02:05:13.876Z,1001.14
2017-11-22T02:05:40.002Z,1001.3
2017-11-22T02:06:06.147Z,1001.22
2017-11-22T02:06:32.266Z,1001.28
2017-11-22T02:06:58.392Z,1001.19
2017-11-22T02:07:24.513Z,1001.09
2017-11-22T02:07:50.640Z,1001.19
2017-11-22T02:08:16.766Z,1001.14
2017-11-22T02:08:42.901Z,1001.14
2017-11-22T02:09:09.033Z,1001.1
2017-11-22T02:09:35.157Z,1001.15
2017-11-22T02:10:01.275Z,1001.1
2017-11-22T02:10:27.403Z,1001.05
2017-11-22T02:10:53.526Z,1001.09
2017-11-22T02:11:19.650Z,1001.05
2017-11-22T02:11:45.768Z,1001.04
2017-11-22T02:12:11.891Z,1001.12
2017-11-22T02:12:38.021Z,1001.03
2017-11-22T02:13:04.147Z,1001.04
2017-11-22T02:13:30.267Z,1001.09
2017-11-22T02:13:56.387Z,1001.05
2017-11-22T02:14:22.516Z,1001.05
2017-11-22T02:14:48.636Z,1001.05
2017-11-22T02:15:14.770Z,1001
2017-11-22T02:15:40.896Z,1001.05
2017-11-22T02:16:07.022Z,1001
2017-11-22T02:16:33.140Z,1001.02
2017-11-22T02:16:59.262Z,1001
2017-11-22T02:17:25.386Z,1000.99
2017-11-22T02:17:51.507Z,1000.98
2017-11-22T02:18:17.625Z,1001.01
2017-11-22T02:18:43.758Z,1000.97
2017-11-22T02:19:09.882Z,1001
2017-11-22T02:19:36.002Z,1000.92
2017-11-22T02:20:02.127Z,1000.84
2017-11-22T02:20:28.246Z,1000.9
2017-11-22T02:20:54.369Z,1000.84
2017-11-22T02:21:20.501Z,1000.83
2017-11-22T02:21:46.626Z,1000.8
2017-11-22T02:22:12.742Z,1000.86
2017-11-22T02:22:38.865Z,1000.83
2017-11-22T02:23:04.995Z,1000.84
2017-11-22T02:23:31.122Z,1000.85
2017-11-22T02:23:57.245Z,1000.84
2017-11-22T02:24:23.364Z,1000.92
2017-11-22T02:24:49.496Z,1000.95
2017-11-22T02:25:15.640Z,1000.78
2017-11-22T02:25:41.764Z,1000.81
2017-11-22T02:26:07.889Z,1000.81
2017-11-22T02:26:34.005Z,1000.85
2017-11-22T02:27:00.129Z,1000.77
2017-11-22T02:27:26.264Z,1000.78
2017-11-22T02:27:52.377Z,1000.76
2017-11-22T02:28:18.525Z,1000.84
2017-11-22T02:28:44.651Z,1000.75
2017-11-22T02:29:10.799Z,1000.74
2017-11-22T02:29:36.924Z,1000.74
2017-11-22T02:30:03.047Z,1000.74
2017-11-22T02:30:29.177Z,1000.81
2017-11-22T02:30:55.292Z,1000.75
2017-11-22T02:31:21.418Z,1000.81
2017-11-22T02:31:47.536Z,1000.81
2017-11-22T02:32:13.683Z,1000.85
2017-11-22T02:32:39.806Z,1000.81
2017-11-22T02:33:05.953Z,1000.83
2017-11-22T02:33:32.077Z,1000.79
2017-11-22T02:33:58.196Z,1000.8
2017-11-22T02:34:24.341Z,1000.76
2017-11-22T02:34:50.465Z,1000.76
2017-11-22T02:35:16.606Z,1000.82
2017-11-22T02:35:42.728Z,1000.85
2017-11-22T02:36:08.852Z,1000.74
2017-11-22T02:36:34.973Z,1000.77
2017-11-22T02:37:01.101Z,1000.76
2017-11-22T02:37:27.223Z,1000.74
2017-11-22T02:37:53.349Z,1000.7
2017-11-22T02:38:19.465Z,1000.71
2017-11-22T02:38:45.616Z,1000.71
2017-11-22T02:39:11.741Z,1000.67
2017-11-22T02:39:37.866Z,1000.75
2017-11-22T02:40:03.991Z,1000.66
2017-11-22T02:40:30.135Z,1000.73
2017-11-22T02:40:56.262Z,1000.79
2017-11-22T02:41:22.404Z,1000.77
2017-11-22T02:41:48.542Z,1000.75
2017-11-22T02:42:14.668Z,1000.79
2017-11-22T02:42:40.792Z,1000.78
2017-11-22T02:43:06.941Z,1000.76
2017-11-22T02:43:33.081Z,1000.82
2017-11-22T02:43:59.228Z,1000.77
2017-11-22T02:44:25.368Z,1000.79
2017-11-22T02:44:51.510Z,1000.75
2017-11-22T02:45:17.645Z,1000.73
2017-11-22T02:45:43.763Z,1000.75
2017-11-22T02:46:09.888Z,1000.79
2017-11-22T02:46:36.018Z,1000.71
2017-11-22T02:47:02.139Z,1000.75
2017-11-22T02:47:28.259Z,1000.74
2017-11-22T02:47:54.400Z,1000.73
2017-11-22T02:48:20.530Z,1000.74
2017-11-22T02:48:46.653Z,1000.78
2017-11-22T02:49:12.776Z,1000.82
2017-11-22T02:49:38.918Z,1000.86
2017-11-22T02:50:05.063Z,1000.82
2017-11-22T02:50:31.182Z,1000.75
2017-11-22T02:50:57.317Z,1000.8
2017-11-22T02:51:23.440Z,1000.83
2017-11-22T02:51:49.559Z,1000.82
2017-11-22T02:52:15.692Z,1000.87
2017-11-22T02:52:41.812Z,1000.86
2017-11-22T02:53:07.934Z,1000.91
2017-11-22T02:53:34.056Z,1000.92
2017-11-22T02:54:00.177Z,1000.82
2017-11-22T02:54:26.299Z,1000.8
2017-11-22T02:54:52.431Z,1000.78
2017-11-22T02:55:18.594Z,1000.79
2017-11-22T02:55:44.717Z,1000.79
2017-11-22T02:56:10.856Z,1000.85
2017-11-22T02:56:36.995Z,1000.85
2017-11-22T02:57:03.115Z,1000.84
2017-11-22T02:57:29.243Z,1000.83
2017-11-22T02:57:55.367Z,1000.77
2017-11-22T02:58:21.490Z,1000.83
2017-11-22T02:58:47.624Z,1000.8
2017-11-22T02:59:13.767Z,1000.79
2017-11-22T02:59:39.871Z,1000.74
2017-11-22T03:00:05.995Z,1000.87
2017-11-22T03:00:32.117Z,1000.81
2017-11-22T03:00:58.247Z,1000.8
2017-11-22T03:01:24.363Z,1000.78
2017-11-22T03:01:50.484Z,1000.78
2017-11-22T03:02:16.614Z,1000.8
2017-11-22T03:02:42.744Z,1000.8
2017-11-22T03:03:08.872Z,1000.79
2017-11-22T03:03:35.005Z,1000.79
2017-11-22T03:04:01.142Z,1000.8
2017-11-22T03:04:27.288Z,1000.84
2017-11-22T03:04:53.409Z,1000.85
2017-11-22T03:05:19.529Z,1000.82
2017-11-22T03:05:45.653Z,1000.85
2017-11-22T03:06:11.795Z,1000.91
2017-11-22T03:06:37.913Z,1000.84
2017-11-22T03:07:04.041Z,1000.85
2017-11-22T03:07:30.170Z,1000.82
2017-11-22T03:07:56.290Z,1000.79
2017-11-22T03:08:22.426Z,1000.79
2017-11-22T03:08:48.549Z,1000.82
2017-11-22T03:09:14.685Z,1000.9
2017-11-22T03:09:40.808Z,1000.83
2017-11-22T03:10:06.938Z,1000.92
2017-11-22T03:10:33.057Z,1000.92
2017-11-22T03:10:59.182Z,1000.79
2017-11-22T03:11:25.321Z,1000.86
2017-11-22T03:11:51.451Z,1000.94
2017-11-22T03:12:17.569Z,1000.88
2017-11-22T03:12:43.696Z,1000.87
2017-11-22T03:13:09.821Z,1000.96
2017-11-22T03:13:35.937Z,1000.87
2017-11-22T03:14:02.067Z,1000.93
2017-11-22T03:14:28.208Z,1000.81
2017-11-22T03:14:54.332Z,1000.78
2017-11-22T03:15:20.462Z,1000.8
2017-11-22T03:15:46.583Z,1000.86
2017-11-22T03:16:12.707Z,1000.77
2017-11-22T03:16:38.832Z,1000.87
2017-11-22T03:17:04.979Z,1000.93
2017-11-22T03:17:31.099Z,1000.92
2017-11-22T03:17:57.223Z,1000.99
2017-11-22T03:18:23.356Z,1000.86
2017-11-22T03:18:49.475Z,1000.84
2017-11-22T03:19:15.603Z,1000.81
2017-11-22T03:19:41.722Z,1000.89
2017-11-22T03:20:07.847Z,1000.76
2017-11-22T03:20:33.969Z,1000.84
2017-11-22T03:21:00.090Z,1000.85
2017-11-22T03:21:26.220Z,1000.82
2017-11-22T03:21:52.345Z,1000.78
2017-11-22T03:22:18.465Z,1000.8
2017-11-22T03:22:44.596Z,1000.87
2017-11-22T03:23:10.715Z,1000.91
2017-11-22T03:23:36.844Z,1000.79
2017-11-22T03:24:02.960Z,1000.85
2017-11-22T03:24:29.080Z,1000.8
2017-11-22T03:24:55.210Z,1000.81
2017-11-22T03:25:21.343Z,1000.93
2017-11-22T03:25:47.469Z,1000.84
2017-11-22T03:26:13.598Z,1000.82
2017-11-22T03:26:39.754Z,1000.81
2017-11-22T03:27:05.872Z,1000.85
2017-11-22T03:27:32.001Z,1001
2017-11-22T03:27:58.137Z,1000.82
2017-11-22T03:28:24.248Z,1000.92
2017-11-22T03:28:50.372Z,1000.83
2017-11-22T03:29:16.496Z,1000.85
2017-11-22T03:29:42.622Z,1000.88
2017-11-22T03:30:08.756Z,1000.91
2017-11-22T03:30:34.901Z,1000.79
2017-11-22T03:31:01.024Z,1000.84
2017-11-22T03:31:27.152Z,1000.82
2017-11-22T03:31:53.268Z,1000.88
2017-11-22T03:32:19.392Z,1000.81
2017-11-22T03:32:45.517Z,1000.82
2017-11-22T03:33:11.646Z,1000.79
2017-11-22T03:33:37.767Z,1000.82
2017-11-22T03:34:03.891Z,1000.8
2017-11-22T03:34:30.020Z,1000.79
2017-11-22T03:34:56.139Z,1000.87
2017-11-22T03:35:22.290Z,1000.82
2017-11-22T03:35:48.414Z,1000.81
2017-11-22T03:36:14.538Z,1000.82
2017-11-22T03:36:40.656Z,1000.83
2017-11-22T03:37:06.784Z,1000.86
2017-11-22T03:37:32.907Z,1000.81
2017-11-22T03:37:59.026Z,1000.9
2017-11-22T03:38:25.155Z,1000.86
2017-11-22T03:38:51.273Z,1000.85
2017-11-22T03:39:17.407Z,1000.8
2017-11-22T03:39:43.540Z,1000.82
2017-11-22T03:40:09.666Z,1000.77
2017-11-22T03:40:35.784Z,1000.79
2017-11-22T03:41:01.911Z,1000.73
2017-11-22T03:41:28.028Z,1000.8
2017-11-22T03:41:54.181Z,1000.79
2017-11-22T03:42:20.285Z,1000.83
2017-11-22T03:42:46.423Z,1000.74
2017-11-22T03:43:12.530Z,1000.73
2017-11-22T03:43:38.653Z,1000.73
2017-11-22T03:44:04.774Z,1000.75
2017-11-22T03:44:30.902Z,1000.7
2017-11-22T03:44:57.023Z,1000.7
2017-11-22T03:45:23.145Z,1000.7
2017-11-22T03:45:49.274Z,1000.7
2017-11-22T03:46:15.396Z,1000.71
2017-11-22T03:46:41.535Z,1000.68
2017-11-22T03:47:07.659Z,1000.57
2017-11-22T03:47:33.781Z,1000.64
2017-11-22T03:47:59.907Z,1000.7
2017-11-22T03:48:26.027Z,1000.65
2017-11-22T03:48:52.150Z,1000.65
2017-11-22T03:49:18.286Z,1000.68
2017-11-22T03:49:44.404Z,1000.68
2017-11-22T03:50:10.521Z,1000.67
2017-11-22T03:50:36.647Z,1000.7
2017-11-22T03:51:02.767Z,1000.72
2017-11-22T03:51:28.887Z,1000.77
2017-11-22T03:51:55.014Z,1000.67
2017-11-22T03:52:21.136Z,1000.59
2017-11-22T03:52:47.267Z,1000.71
2017-11-22T03:53:13.446Z,1000.57
2017-11-22T03:53:39.579Z,1000.71
2017-11-22T03:54:05.693Z,1000.63
2017-11-22T03:54:31.824Z,1000.57
2017-11-22T03:54:57.941Z,1000.52
2017-11-22T03:55:24.071Z,1000.73
2017-11-22T03:55:50.191Z,1000.6
2017-11-22T03:56:16.322Z,1000.73
2017-11-22T03:56:42.438Z,1000.67
2017-11-22T03:57:08.562Z,1000.63
2017-11-22T03:57:34.683Z,1000.67
2017-11-22T03:58:00.814Z,1000.68
2017-11-22T03:58:26.931Z,1000.74
2017-11-22T03:58:53.063Z,1000.64
2017-11-22T03:59:19.191Z,1000.67
2017-11-22T03:59:45.317Z,1000.6
2017-11-22T04:00:11.438Z,1000.59
2017-11-22T04:00:37.557Z,1000.66
2017-11-22T04:01:03.678Z,1000.69
2017-11-22T04:01:29.815Z,1000.67
2017-11-22T04:01:55.926Z,1000.66
2017-11-22T04:02:22.054Z,1000.76
2017-11-22T04:02:48.181Z,1000.61
2017-11-22T04:03:14.300Z,1000.51
2017-11-22T04:03:40.429Z,1000.51
2017-11-22T04:04:06.554Z,1000.58
2017-11-22T04:04:32.722Z,1000.59
2017-11-22T04:04:58.869Z,1000.53
2017-11-22T04:05:25.015Z,1000.63
2017-11-22T04:05:51.134Z,1000.53
2017-11-22T04:06:17.254Z,1000.57
2017-11-22T04:06:43.382Z,1000.51
2017-11-22T04:07:09.505Z,1000.54
2017-11-22T04:07:35.637Z,1000.48
2017-11-22T04:08:01.752Z,1000.51
2017-11-22T04:08:27.878Z,1000.53
2017-11-22T04:08:54.006Z,1000.58
2017-11-22T04:09:20.125Z,1000.45
2017-11-22T04:09:46.253Z,1000.5
2017-11-22T04:10:12.378Z,1000.51
2017-11-22T04:10:38.490Z,1000.47
2017-11-22T04:11:04.616Z,1000.47
2017-11-22T04:11:30.762Z,1000.42
2017-11-22T04:11:56.895Z,1000.48
2017-11-22T04:12:23.077Z,1000.41
2017-11-22T04:12:49.187Z,1000.51
2017-11-22T04:13:15.310Z,1000.46
2017-11-22T04:13:41.437Z,1000.48
2017-11-22T04:14:07.562Z,1000.54
2017-11-22T04:14:33.702Z,1000.56
2017-11-22T04:14:59.847Z,1000.53
2017-11-22T04:15:25.966Z,1000.42
2017-11-22T04:15:52.096Z,1000.49
2017-11-22T04:16:18.214Z,1000.46
2017-11-22T04:16:44.334Z,1000.52
2017-11-22T04:17:10.462Z,1000.51
2017-11-22T04:17:36.577Z,1000.46
2017-11-22T04:18:02.708Z,1000.34
2017-11-22T04:18:28.835Z,1000.5
2017-11-22T04:18:54.957Z,1000.38
2017-11-22T04:19:21.105Z,1000.38
2017-11-22T04:19:47.226Z,1000.35
2017-11-22T04:20:13.351Z,1000.32
2017-11-22T04:20:39.499Z,1000.28
2017-11-22T04:21:05.619Z,1000.41
2017-11-22T04:21:31.748Z,1000.34
2017-11-22T04:21:57.877Z,1000.3
2017-11-22T04:22:23.994Z,1000.34
2017-11-22T04:22:50.145Z,1000.29
2017-11-22T04:23:16.285Z,1000.27
2017-11-22T04:23:42.417Z,1000.27
2017-11-22T04:24:08.537Z,1000.33
2017-11-22T04:24:34.665Z,1000.39
2017-11-22T04:25:00.782Z,1000.31
2017-11-22T04:25:26.910Z,1000.35
2017-11-22T04:25:53.028Z,1000.31
2017-11-22T04:26:19.153Z,1000.33
2017-11-22T04:26:45.282Z,1000.29
2017-11-22T04:27:11.406Z,1000.27
2017-11-22T04:27:37.523Z,1000.29
2017-11-22T04:28:03.651Z,1000.31
2017-11-22T04:28:29.794Z,1000.31
2017-11-22T04:28:55.938Z,1000.32
2017-11-22T04:29:22.067Z,1000.28
2017-11-22T04:29:48.187Z,1000.28
2017-11-22T04:30:14.321Z,1000.27
2017-11-22T04:30:40.438Z,1000.25
2017-11-22T04:31:06.565Z,1000.28
2017-11-22T04:31:32.690Z,1000.33
2017-11-22T04:31:58.809Z,1000.29
2017-11-22T04:32:24.930Z,1000.21
2017-11-22T04:32:51.057Z,1000.37
2017-11-22T04:33:17.183Z,1000.22
2017-11-22T04:33:43.305Z,1000.24
2017-11-22T04:34:09.456Z,1000.2
2017-11-22T04:34:35.575Z,1000.21
2017-11-22T04:35:01.700Z,1000.21
2017-11-22T04:35:27.825Z,1000.21
2017-11-22T04:35:53.951Z,1000.27
2017-11-22T04:36:20.069Z,1000.25
2017-11-22T04:36:46.200Z,1000.27
2017-11-22T04:37:12.315Z,1000.26
2017-11-22T04:37:38.444Z,1000.23
2017-11-22T04:38:04.566Z,1000.29
2017-11-22T04:38:30.692Z,1000.3
2017-11-22T04:38:56.814Z,1000.2
2017-11-22T04:39:22.961Z,1000.32
2017-11-22T04:39:49.086Z,1000.26
2017-11-22T04:40:15.211Z,1000.24
2017-11-22T04:40:41.331Z,1000.22
2017-11-22T04:41:07.462Z,1000.25
2017-11-22T04:41:33.617Z,1000.24
2017-11-22T04:41:59.736Z,1000.23
2017-11-22T04:42:25.862Z,1000.4
2017-11-22T04:42:51.978Z,1000.35
2017-11-22T04:43:18.108Z,1000.34
2017-11-22T04:43:44.229Z,1000.33
2017-11-22T04:44:10.397Z,1000.18
2017-11-22T04:44:36.514Z,1000.26
2017-11-22T04:45:02.638Z,1000.27
2017-11-22T04:45:28.759Z,1000.17
2017-11-22T04:45:54.883Z,1000.21
2017-11-22T04:46:21.013Z,1000.23
2017-11-22T04:46:47.138Z,1000.21
2017-11-22T04:47:13.275Z,1000.25
2017-11-22T04:47:39.403Z,1000.33
2017-11-22T04:48:05.526Z,1000.16
2017-11-22T04:48:31.654Z,1000.13
2017-11-22T04:48:57.792Z,1000.17
2017-11-22T04:49:23.916Z,1000.25
2017-11-22T04:49:50.052Z,1000.17
2017-11-22T04:50:16.172Z,1000.28
2017-11-22T04:50:42.291Z,1000.18
2017-11-22T04:51:08.413Z,1000.09
2017-11-22T04:51:34.543Z,1000.15
2017-11-22T04:52:00.665Z,1000.18
2017-11-22T04:52:26.790Z,1000.14
2017-11-22T04:52:52.913Z,1000.03
2017-11-22T04:53:19.057Z,1000.17
2017-11-22T04:53:45.200Z,1000.11
2017-11-22T04:54:11.329Z,1000.24
2017-11-22T04:54:37.467Z,1000.18
2017-11-22T04:55:03.591Z,1000.15
2017-11-22T04:55:29.713Z,1000.09
2017-11-22T04:55:55.854Z,1000.05
2017-11-22T04:56:21.987Z,1000.12
2017-11-22T04:56:48.121Z,1000.13
2017-11-22T04:57:14.248Z,1000.21
2017-11-22T04:57:40.376Z,1000.17
2017-11-22T04:58:06.497Z,1000.15
2017-11-22T04:58:32.627Z,1000.07
2017-11-22T04:58:58.744Z,1000.19
2017-11-22T04:59:24.883Z,1000.2
2017-11-22T04:59:50.992Z,1000.33
2017-11-22T05:00:17.112Z,1000.21
2017-11-22T05:00:43.239Z,1000.14
2017-11-22T05:01:09.367Z,1000.19
2017-11-22T05:01:35.485Z,1000.22
2017-11-22T05:02:01.609Z,1000.16
2017-11-22T05:02:27.735Z,1000.25
2017-11-22T05:02:53.878Z,1000.24
2017-11-22T05:03:20.002Z,1000.25
2017-11-22T05:03:46.136Z,1000.25
2017-11-22T05:04:12.278Z,1000.21
2017-11-22T05:04:38.419Z,1000.19
2017-11-22T05:05:04.559Z,1000.24
2017-11-22T05:05:30.677Z,1000.18
2017-11-22T05:05:56.807Z,1000.27
2017-11-22T05:06:22.931Z,1000.23
2017-11-22T05:06:49.056Z,1000.25
2017-11-22T05:07:15.175Z,1000.19
2017-11-22T05:07:41.321Z,1000.21
2017-11-22T05:08:07.447Z,1000.3
2017-11-22T05:08:33.565Z,1000.18
2017-11-22T05:08:59.688Z,1000.26
2017-11-22T05:09:25.838Z,1000.27
2017-11-22T05:09:51.957Z,1000.31
2017-11-22T05:10:18.078Z,1000.34
2017-11-22T05:10:44.202Z,1000.22
2017-11-22T05:11:10.320Z,1000.27
2017-11-22T05:11:36.449Z,1000.32
2017-11-22T05:12:02.580Z,1000.25
2017-11-22T05:12:28.691Z,1000.17
2017-11-22T05:12:54.815Z,1000.3
2017-11-22T05:13:20.944Z,1000.3
2017-11-22T05:13:47.069Z,1000.35
2017-11-22T05:14:13.188Z,1000.27
2017-11-22T05:14:39.316Z,1000.25
2017-11-22T05:15:05.443Z,1000.21
2017-11-22T05:15:31.584Z,1000.25
2017-11-22T05:15:57.708Z,1000.25
2017-11-22T05:16:23.835Z,1000.27
2017-11-22T05:16:49.959Z,1000.31
2017-11-22T05:17:16.076Z,1000.25